Time;durP1;ratioP1;P1;durP2;ratioP2;P2;SDS_P1;SDS_P2;PMS_P1;PMS_P2;Temp;Humidity;BMP_temperature;BMP_pressure;BME280_temperature;BME280_humidity;BME280_pressure;Samples;Min_cycle;Max_cycle;Signal;HPM_P1;HPM_P2
2022/12/24 00:02:23;;;;;;;4.50;3.10;;;8.00;99.90;;;;;;5030200;28;20184;-59
2022/12/24 00:04:49;;;;;;;6.53;3.43;;;7.90;99.90;;;;;;5038727;28;20175;-59
2022/12/24 00:07:14;;;;;;;4.93;3.57;;;7.90;99.90;;;;;;5046355;28;20183;-60
2022/12/24 00:09:40;;;;;;;5.23;3.47;;;7.90;99.90;;;;;;5047230;28;20203;-60
2022/12/24 00:12:06;;;;;;;5.50;3.37;;;7.80;99.90;;;;;;5055555;28;20683;-60
2022/12/24 00:14:31;;;;;;;10.33;5.30;;;7.80;99.90;;;;;;5039046;28;20668;-61
2022/12/24 00:16:57;;;;;;;10.00;5.13;;;7.70;99.90;;;;;;5036602;28;20168;-60
2022/12/24 00:19:23;;;;;;;14.63;6.60;;;7.70;99.90;;;;;;5046015;28;20183;-59
2022/12/24 00:21:48;;;;;;;10.70;5.60;;;7.70;99.90;;;;;;5045875;28;20309;-59
2022/12/24 00:24:14;;;;;;;10.67;5.90;;;7.70;99.90;;;;;;5042978;28;20203;-60
2022/12/24 00:26:39;;;;;;;11.13;5.73;;;7.70;99.90;;;;;;5039509;28;20175;-60
2022/12/24 00:29:05;;;;;;;10.17;5.70;;;7.60;99.90;;;;;;5042732;28;20242;-60
2022/12/24 00:31:31;;;;;;;6.70;4.90;;;7.60;99.90;;;;;;5048939;28;20198;-58
2022/12/24 00:33:56;;;;;;;5.63;4.40;;;7.50;99.90;;;;;;5048326;28;20175;-60
2022/12/24 00:36:22;;;;;;;6.67;4.97;;;7.50;99.90;;;;;;5038498;28;20201;-60
2022/12/24 00:38:48;;;;;;;6.00;3.97;;;7.40;99.90;;;;;;5060085;28;20182;-60
2022/12/24 00:41:24;;;;;;;6.93;3.73;;;7.40;99.90;;;;;;5041151;28;20210;-60
2022/12/24 00:43:52;;;;;;;10.10;3.30;;;7.40;99.90;;;;;;5045685;28;20712;-59
2022/12/24 00:46:18;;;;;;;3.73;2.80;;;7.50;99.90;;;;;;5042658;28;20470;-60
2022/12/24 00:48:43;;;;;;;4.53;2.47;;;7.40;99.90;;;;;;5040947;28;20974;-59
2022/12/24 00:51:09;;;;;;;3.83;2.90;;;7.50;99.90;;;;;;5040384;28;20187;-60
2022/12/24 00:53:34;;;;;;;4.80;2.50;;;7.50;99.90;;;;;;5047774;28;20177;-60
2022/12/24 00:56:00;;;;;;;5.10;2.60;;;7.50;99.90;;;;;;5040033;28;20206;-60
2022/12/24 00:58:26;;;;;;;3.60;3.10;;;7.50;99.90;;;;;;5041749;28;20274;-60
2022/12/24 01:00:51;;;;;;;4.20;3.30;;;7.40;99.90;;;;;;5047621;28;20690;-59
2022/12/24 01:03:17;;;;;;;4.20;3.30;;;7.40;99.90;;;;;;5034761;28;20305;-61
2022/12/24 01:05:42;;;;;;;3.80;3.23;;;7.30;99.90;;;;;;5032124;28;20179;-60
2022/12/24 01:08:08;;;;;;;4.40;3.10;;;7.30;99.90;;;;;;5045603;28;20240;-60
2022/12/24 01:10:33;;;;;;;4.93;3.10;;;7.20;99.90;;;;;;5055721;28;20597;-60
2022/12/24 01:13:02;;;;;;;5.93;2.73;;;7.10;99.90;;;;;;5038556;28;20179;-60
2022/12/24 01:15:29;;;;;;;4.50;2.90;;;7.10;99.90;;;;;;5038009;28;20179;-59
2022/12/24 01:17:54;;;;;;;3.67;2.33;;;7.10;99.90;;;;;;5034751;28;20431;-60
2022/12/24 01:20:20;;;;;;;4.77;2.93;;;7.00;99.90;;;;;;5044201;28;20448;-59
2022/12/24 01:22:47;;;;;;;7.90;3.23;;;7.00;99.90;;;;;;5036582;28;20666;-59
2022/12/24 01:25:13;;;;;;;9.83;3.20;;;7.00;99.90;;;;;;5043058;28;20187;-60
2022/12/24 01:27:39;;;;;;;6.93;3.37;;;7.00;99.90;;;;;;5041186;28;20442;-60
2022/12/24 01:30:07;;;;;;;6.77;3.93;;;7.00;99.90;;;;;;5044838;28;20464;-59
2022/12/24 01:32:33;;;;;;;10.00;4.40;;;7.10;99.90;;;;;;5031542;28;20798;-60
2022/12/24 01:34:59;;;;;;;11.80;5.50;;;7.10;99.90;;;;;;5042309;28;20414;-60
2022/12/24 01:37:24;;;;;;;8.57;5.57;;;7.10;99.90;;;;;;5043884;28;20261;-60
2022/12/24 01:39:50;;;;;;;24.13;8.53;;;7.10;99.90;;;;;;5052474;28;20192;-59
2022/12/24 01:45:34;;;;;;;13.90;6.50;;;7.10;99.90;;;;;;5034675;28;20230;-59
2022/12/24 01:48:00;;;;;;;9.40;4.77;;;7.10;99.90;;;;;;5037285;28;20441;-59
2022/12/24 01:50:25;;;;;;;4.33;3.27;;;7.10;99.90;;;;;;5034653;28;20444;-60
2022/12/24 01:52:51;;;;;;;6.80;3.07;;;7.10;99.90;;;;;;5036248;28;20180;-60
2022/12/24 01:55:18;;;;;;;7.77;3.40;;;7.10;99.90;;;;;;5037804;28;20183;-60
2022/12/24 01:57:59;;;;;;;3.80;2.80;;;7.20;99.90;;;;;;5042026;28;20434;-60
2022/12/24 02:00:25;;;;;;;6.00;2.73;;;7.20;99.90;;;;;;5037608;28;20494;-60
2022/12/24 02:02:52;;;;;;;3.07;2.40;;;7.20;99.90;;;;;;5044405;28;20462;-60
2022/12/24 02:05:37;;;;;;;6.50;2.70;;;7.20;99.90;;;;;;5043683;28;20553;-60
2022/12/24 02:08:04;;;;;;;4.43;2.07;;;7.20;99.90;;;;;;5031459;28;20441;-60
2022/12/24 02:10:29;;;;;;;6.53;2.03;;;7.20;99.90;;;;;;5045503;28;20968;-59
2022/12/24 02:12:57;;;;;;;3.83;1.60;;;7.20;99.90;;;;;;5035834;28;20461;-60
2022/12/24 02:15:22;;;;;;;4.93;2.20;;;7.20;99.90;;;;;;5044029;28;20179;-60
2022/12/24 02:18:06;;;;;;;5.20;2.00;;;7.20;99.90;;;;;;5035285;28;20440;-59
2022/12/24 02:20:50;;;;;;;6.83;2.10;;;7.20;99.90;;;;;;5048622;28;20190;-60
2022/12/24 02:23:36;;;;;;;2.70;1.97;;;7.20;99.90;;;;;;5046481;28;20425;-60
2022/12/24 02:26:31;;;;;;;1.83;1.73;;;7.20;99.90;;;;;;5048483;28;20957;-60
2022/12/24 02:29:16;;;;;;;5.70;2.00;;;7.20;99.90;;;;;;5048499;28;20469;-60
2022/12/24 02:31:42;;;;;;;3.43;2.03;;;7.20;99.90;;;;;;5036572;28;20462;-60
2022/12/24 02:34:22;;;;;;;3.80;2.00;;;7.10;99.90;;;;;;5039735;28;20963;-60
2022/12/24 02:36:58;;;;;;;2.20;1.93;;;7.10;99.90;;;;;;5051191;28;20183;-60
2022/12/24 02:39:44;;;;;;;2.50;1.70;;;7.10;99.90;;;;;;5042492;28;20448;-60
2022/12/24 02:42:12;;;;;;;8.87;3.37;;;7.00;99.90;;;;;;5043072;28;20760;-59
2022/12/24 02:44:50;;;;;;;2.97;2.60;;;7.00;99.90;;;;;;5039385;28;21024;-59
2022/12/24 02:47:17;;;;;;;10.10;2.90;;;7.00;99.90;;;;;;5047520;28;20445;-59
2022/12/24 02:49:46;;;;;;;7.53;2.60;;;7.00;99.90;;;;;;5041355;28;20514;-59
2022/12/24 02:52:39;;;;;;;3.80;2.60;;;7.00;99.90;;;;;;5043716;28;20499;-60
2022/12/24 02:55:43;;;;;;;3.20;2.40;;;6.90;99.90;;;;;;5045377;28;20444;-59
2022/12/24 02:58:30;;;;;;;4.30;2.60;;;6.90;99.90;;;;;;5040976;28;20437;-60
2022/12/24 03:01:17;;;;;;;6.03;2.30;;;6.90;99.90;;;;;;5039054;28;20472;-62
2022/12/24 03:03:48;;;;;;;12.13;3.23;;;6.90;99.90;;;;;;5036029;28;20491;-60
2022/12/24 03:06:29;;;;;;;2.83;2.60;;;6.90;99.90;;;;;;5047969;28;20425;-59
2022/12/24 03:09:03;;;;;;;5.03;2.67;;;6.90;99.90;;;;;;5043787;28;20460;-60
2022/12/24 03:11:29;;;;;;;3.73;2.47;;;6.90;99.90;;;;;;5042669;28;20475;-60
2022/12/24 03:13:58;;;;;;;3.23;2.23;;;6.80;99.90;;;;;;5043466;28;22013;-60
2022/12/24 03:16:26;;;;;;;8.53;2.20;;;6.80;99.90;;;;;;5045888;28;20210;-61
2022/12/24 03:18:53;;;;;;;5.67;2.47;;;6.80;99.90;;;;;;5053001;28;20537;-60
2022/12/24 03:21:32;;;;;;;4.93;2.70;;;6.80;99.90;;;;;;5045163;28;20458;-60
2022/12/24 03:23:58;;;;;;;3.07;2.23;;;6.80;99.90;;;;;;5046535;28;20433;-59
2022/12/24 03:26:25;;;;;;;3.77;2.30;;;6.80;99.90;;;;;;5041828;28;20443;-60
2022/12/24 03:28:51;;;;;;;6.93;2.80;;;6.80;99.90;;;;;;5045965;28;20458;-60
2022/12/24 03:31:17;;;;;;;3.40;2.33;;;6.70;99.90;;;;;;5044480;28;20981;-60
2022/12/24 03:33:43;;;;;;;5.87;2.40;;;6.70;99.90;;;;;;5054773;28;20808;-60
2022/12/24 03:36:09;;;;;;;6.00;2.07;;;6.70;99.90;;;;;;5043969;28;20474;-59
2022/12/24 03:38:35;;;;;;;6.80;2.30;;;6.60;99.90;;;;;;5044803;28;20445;-60
2022/12/24 03:41:01;;;;;;;2.80;1.80;;;6.60;99.90;;;;;;5046806;28;20773;-59
2022/12/24 03:43:26;;;;;;;4.37;2.03;;;6.50;99.90;;;;;;5037703;28;20183;-60
2022/12/24 03:45:52;;;;;;;2.67;2.10;;;6.50;99.90;;;;;;5046463;28;20180;-59
2022/12/24 03:48:18;;;;;;;2.30;2.10;;;6.50;99.90;;;;;;5049982;28;20167;-60
2022/12/24 03:50:43;;;;;;;2.70;2.47;;;6.50;99.90;;;;;;5044428;28;20191;-60
2022/12/24 03:53:09;;;;;;;4.40;2.47;;;6.50;99.90;;;;;;5035935;28;20689;-60
2022/12/24 03:55:35;;;;;;;2.60;1.70;;;6.50;99.90;;;;;;5047428;28;20207;-59
2022/12/24 03:58:00;;;;;;;5.17;2.23;;;6.60;99.90;;;;;;5038773;28;20279;-59
2022/12/24 04:00:26;;;;;;;4.23;2.20;;;6.60;99.90;;;;;;5048697;28;20175;-59
2022/12/24 04:02:52;;;;;;;11.70;2.30;;;6.50;99.90;;;;;;5054727;28;20176;-60
2022/12/24 04:05:19;;;;;;;8.40;2.30;;;6.50;99.90;;;;;;5048110;28;20253;-60
2022/12/24 04:07:45;;;;;;;2.80;2.30;;;6.30;99.90;;;;;;5037755;28;20802;-61
2022/12/24 04:10:12;;;;;;;3.30;2.50;;;6.20;99.90;;;;;;5043863;28;20459;-61
2022/12/24 04:12:38;;;;;;;2.43;2.23;;;6.20;99.90;;;;;;5043137;28;20538;-60
2022/12/24 04:15:04;;;;;;;2.90;2.43;;;6.10;99.90;;;;;;5050753;28;20558;-60
2022/12/24 04:17:30;;;;;;;3.13;2.83;;;6.00;99.90;;;;;;5053021;28;20430;-60
2022/12/24 04:19:55;;;;;;;4.17;2.70;;;5.90;99.90;;;;;;5042326;28;20460;-59
2022/12/24 04:22:21;;;;;;;5.10;2.80;;;5.90;99.90;;;;;;5038986;28;20615;-59
2022/12/24 04:24:46;;;;;;;6.97;2.73;;;5.80;99.90;;;;;;5029989;28;20187;-59
2022/12/24 04:27:13;;;;;;;4.37;2.87;;;5.80;99.90;;;;;;5038874;28;20182;-60
2022/12/24 04:29:39;;;;;;;4.63;3.17;;;5.80;99.90;;;;;;5040626;28;20204;-59
2022/12/24 04:32:05;;;;;;;10.97;3.60;;;5.80;99.90;;;;;;5065929;28;20539;-60
2022/12/24 04:34:30;;;;;;;4.37;3.07;;;5.80;99.90;;;;;;5044616;28;20213;-60
2022/12/24 04:36:56;;;;;;;5.90;3.60;;;5.90;99.90;;;;;;5042879;28;20184;-60
2022/12/24 04:39:21;;;;;;;6.30;3.47;;;5.90;99.90;;;;;;5046439;28;20233;-60
2022/12/24 04:41:47;;;;;;;3.57;3.27;;;5.90;99.90;;;;;;5056320;28;20698;-59
2022/12/24 04:44:13;;;;;;;4.47;3.10;;;5.90;99.90;;;;;;5047834;28;20175;-59
2022/12/24 04:46:39;;;;;;;6.37;3.40;;;5.90;99.90;;;;;;5039312;28;20214;-60
2022/12/24 04:49:05;;;;;;;3.87;2.70;;;5.90;99.90;;;;;;5046736;28;20314;-60
2022/12/24 04:51:31;;;;;;;7.17;3.13;;;5.90;99.90;;;;;;5048815;28;20505;-59
2022/12/24 04:53:57;;;;;;;4.37;2.47;;;5.90;99.90;;;;;;5058640;28;20609;-60
2022/12/24 04:56:26;;;;;;;4.40;2.77;;;5.90;99.90;;;;;;5047533;28;20179;-59
2022/12/24 04:58:52;;;;;;;3.60;2.70;;;5.90;99.90;;;;;;5043034;28;20175;-59
2022/12/24 05:01:20;;;;;;;4.27;2.77;;;6.00;99.90;;;;;;5047699;28;20445;-60
2022/12/24 05:03:47;;;;;;;5.83;2.83;;;5.90;99.90;;;;;;5041360;28;20433;-60
2022/12/24 05:06:16;;;;;;;4.10;2.67;;;6.00;99.90;;;;;;5047330;28;20441;-59
2022/12/24 05:08:42;;;;;;;2.60;2.40;;;6.00;99.90;;;;;;5051901;28;20506;-60
2022/12/24 05:11:08;;;;;;;5.03;3.10;;;6.00;99.90;;;;;;5054910;28;20854;-60
2022/12/24 05:13:35;;;;;;;12.80;3.57;;;6.00;99.90;;;;;;5047412;28;20428;-60
2022/12/24 05:16:00;;;;;;;4.37;2.50;;;6.00;99.90;;;;;;5045615;28;20459;-60
2022/12/24 05:18:26;;;;;;;3.73;2.53;;;6.00;99.90;;;;;;5039164;28;20511;-60
2022/12/24 05:20:52;;;;;;;6.10;2.93;;;6.00;99.90;;;;;;5045473;28;20278;-60
2022/12/24 05:26:22;;;;;;;4.23;2.87;;;6.10;99.90;;;;;;5046579;28;20441;-59
2022/12/24 05:28:50;;;;;;;7.57;3.07;;;6.10;99.90;;;;;;5052118;28;20489;-60
2022/12/24 05:31:16;;;;;;;4.93;3.50;;;6.10;99.90;;;;;;5033225;28;20953;-59
2022/12/24 05:33:42;;;;;;;5.50;2.70;;;6.20;99.90;;;;;;5047407;28;20401;-60
2022/12/24 05:36:08;;;;;;;2.57;2.37;;;6.20;99.90;;;;;;5050074;28;20436;-59
2022/12/24 05:38:34;;;;;;;5.37;2.90;;;6.20;99.90;;;;;;5054903;28;20209;-60
2022/12/24 05:40:59;;;;;;;6.10;2.97;;;6.20;99.90;;;;;;5033450;28;20297;-58
2022/12/24 05:43:25;;;;;;;6.00;2.53;;;6.30;99.90;;;;;;5054625;28;20178;-59
2022/12/24 05:45:51;;;;;;;6.60;2.60;;;6.30;99.90;;;;;;5050119;28;20585;-60
2022/12/24 05:48:16;;;;;;;5.67;2.80;;;6.30;99.90;;;;;;5046918;28;20184;-60
2022/12/24 05:50:42;;;;;;;2.70;2.40;;;6.30;99.90;;;;;;5068234;28;20614;-59
2022/12/24 05:53:07;;;;;;;3.60;3.10;;;6.30;99.90;;;;;;5050649;28;20211;-60
2022/12/24 05:55:33;;;;;;;5.27;2.50;;;6.30;99.90;;;;;;5042548;28;20225;-60
2022/12/24 05:57:59;;;;;;;3.73;2.50;;;6.30;99.90;;;;;;5048389;28;20246;-60
2022/12/24 06:00:25;;;;;;;8.17;2.17;;;6.30;99.90;;;;;;5051238;28;20195;-60
2022/12/24 06:02:51;;;;;;;5.43;2.20;;;6.30;99.90;;;;;;5049544;28;20488;-59
2022/12/24 06:05:16;;;;;;;4.03;2.27;;;6.30;99.90;;;;;;5049130;28;20190;-60
2022/12/24 06:07:42;;;;;;;6.50;2.63;;;6.40;99.90;;;;;;5050118;28;20186;-59
2022/12/24 06:10:08;;;;;;;6.73;3.17;;;6.40;99.90;;;;;;5051203;28;20216;-60
2022/12/24 06:12:34;;;;;;;4.63;2.83;;;6.40;99.90;;;;;;5042102;28;20196;-59
2022/12/24 06:15:00;;;;;;;9.40;3.20;;;6.40;99.90;;;;;;5055089;28;20524;-60
2022/12/24 06:17:25;;;;;;;10.03;2.43;;;6.40;99.90;;;;;;5042639;28;20247;-60
2022/12/24 06:19:51;;;;;;;6.90;3.00;;;6.40;99.90;;;;;;5050867;28;20591;-60
2022/12/24 06:22:17;;;;;;;4.00;2.57;;;6.50;99.90;;;;;;5044858;28;20203;-59
2022/12/24 06:24:42;;;;;;;7.13;2.37;;;6.40;99.90;;;;;;5044067;28;20176;-59
2022/12/24 06:27:08;;;;;;;6.37;2.47;;;6.50;99.90;;;;;;5039252;28;20191;-60
2022/12/24 06:29:33;;;;;;;5.90;2.50;;;6.50;99.90;;;;;;5054599;28;20260;-60
2022/12/24 06:31:59;;;;;;;3.53;1.60;;;6.50;99.90;;;;;;5042361;28;20195;-60
2022/12/24 06:34:25;;;;;;;5.20;2.07;;;6.50;99.90;;;;;;5042748;28;20266;-59
2022/12/24 06:36:50;;;;;;;5.57;1.80;;;6.50;99.90;;;;;;5041217;28;20184;-59
2022/12/24 06:39:16;;;;;;;4.80;2.37;;;6.60;99.90;;;;;;5046139;28;20195;-60
2022/12/24 06:41:41;;;;;;;5.87;2.30;;;6.60;99.90;;;;;;5047682;28;20209;-60
2022/12/24 06:44:07;;;;;;;6.13;2.27;;;6.60;99.90;;;;;;5048447;28;20639;-59
2022/12/24 06:46:33;;;;;;;5.83;2.30;;;6.60;99.90;;;;;;5049387;28;20725;-59
2022/12/24 06:48:59;;;;;;;8.60;2.37;;;6.60;99.90;;;;;;5035149;28;20579;-60
2022/12/24 06:51:25;;;;;;;8.00;1.93;;;6.60;99.90;;;;;;5042496;28;20200;-60
2022/12/24 06:53:51;;;;;;;4.70;2.10;;;6.60;99.90;;;;;;5039619;28;20182;-60
2022/12/24 06:56:18;;;;;;;6.67;2.80;;;6.60;99.90;;;;;;5055748;28;20511;-60
2022/12/24 06:58:44;;;;;;;5.30;2.40;;;6.60;99.90;;;;;;5039478;28;20878;-60
2022/12/24 07:01:12;;;;;;;5.20;2.63;;;6.60;99.90;;;;;;5041561;28;20500;-59
2022/12/24 07:03:38;;;;;;;11.67;2.67;;;6.60;99.90;;;;;;5043827;28;20741;-59
2022/12/24 07:06:05;;;;;;;4.20;2.27;;;6.60;99.90;;;;;;5036899;28;20442;-59
2022/12/24 07:08:35;;;;;;;4.20;2.30;;;6.60;99.90;;;;;;5047338;28;20852;-60
2022/12/24 07:11:01;;;;;;;5.60;2.43;;;6.60;99.90;;;;;;5047525;28;20489;-61
2022/12/24 07:13:26;;;;;;;9.60;2.43;;;6.60;99.90;;;;;;5045200;28;20982;-61
2022/12/24 07:16:02;;;;;;;9.90;2.90;;;6.70;99.90;;;;;;5049313;28;20434;-61
2022/12/24 07:18:29;;;;;;;4.50;2.20;;;6.60;99.90;;;;;;5042682;28;20171;-61
2022/12/24 07:20:54;;;;;;;6.97;2.90;;;6.60;99.90;;;;;;5050201;28;20450;-60
2022/12/24 07:23:20;;;;;;;7.33;3.97;;;6.70;99.90;;;;;;5044580;28;20502;-60
2022/12/24 07:25:46;;;;;;;8.83;4.10;;;6.70;99.90;;;;;;5047188;28;20703;-60
2022/12/24 07:28:11;;;;;;;13.67;6.77;;;6.60;99.90;;;;;;5049454;28;20184;-60
2022/12/24 07:30:37;;;;;;;17.60;4.70;;;6.60;99.90;;;;;;5045452;28;20715;-60
2022/12/24 07:33:03;;;;;;;9.63;3.77;;;6.60;99.90;;;;;;5041019;28;20586;-60
2022/12/24 07:35:29;;;;;;;10.63;3.53;;;6.60;99.90;;;;;;5048879;28;20253;-60
2022/12/24 07:37:55;;;;;;;4.07;2.50;;;6.60;99.90;;;;;;5047469;28;20187;-60
2022/12/24 07:40:20;;;;;;;16.53;2.90;;;6.60;99.90;;;;;;5052742;28;20838;-59
2022/12/24 07:42:46;;;;;;;5.47;2.43;;;6.60;99.90;;;;;;5049006;28;20194;-60
2022/12/24 07:45:12;;;;;;;14.30;2.80;;;6.70;99.90;;;;;;5048657;28;20297;-60
2022/12/24 07:47:37;;;;;;;7.50;2.80;;;6.70;99.90;;;;;;5049386;28;20424;-60
2022/12/24 07:50:04;;;;;;;7.80;3.30;;;6.70;99.90;;;;;;5037759;28;20196;-61
2022/12/24 07:52:30;;;;;;;5.33;2.90;;;6.70;99.90;;;;;;5047439;28;20187;-60
2022/12/24 07:54:55;;;;;;;10.30;3.07;;;6.70;99.90;;;;;;5043240;28;20439;-60
2022/12/24 07:57:21;;;;;;;5.10;3.13;;;6.70;99.90;;;;;;5033696;28;20189;-60
2022/12/24 07:59:46;;;;;;;7.97;3.40;;;6.70;99.90;;;;;;5038561;28;20949;-60
2022/12/24 08:02:12;;;;;;;13.10;3.30;;;6.70;99.90;;;;;;5046021;28;20199;-61
2022/12/24 08:04:38;;;;;;;7.20;3.10;;;6.70;99.90;;;;;;5037742;28;20562;-60
2022/12/24 08:07:05;;;;;;;7.77;2.80;;;6.70;99.90;;;;;;5038495;28;20180;-60
2022/12/24 08:09:32;;;;;;;5.80;2.40;;;6.70;99.90;;;;;;5049655;28;20199;-59
2022/12/24 08:11:58;;;;;;;7.50;2.80;;;6.70;99.90;;;;;;5036462;28;20452;-59
2022/12/24 08:14:23;;;;;;;7.87;3.90;;;6.70;99.90;;;;;;5039157;28;20429;-59
2022/12/24 08:16:49;;;;;;;8.47;3.70;;;6.70;99.90;;;;;;5042330;28;20257;-59
2022/12/24 08:19:15;;;;;;;9.50;4.90;;;6.70;99.90;;;;;;5041046;28;20978;-59
2022/12/24 08:21:40;;;;;;;8.33;5.00;;;6.70;99.90;;;;;;5044894;28;20252;-61
2022/12/24 08:24:06;;;;;;;5.03;3.70;;;6.70;99.90;;;;;;5040441;28;21140;-60
2022/12/24 08:26:32;;;;;;;13.20;3.63;;;6.70;99.90;;;;;;5043676;28;20201;-59
2022/12/24 08:28:57;;;;;;;12.83;5.50;;;6.70;99.90;;;;;;5033046;28;20218;-59
2022/12/24 08:31:23;;;;;;;14.63;9.00;;;6.70;99.90;;;;;;5052271;28;20199;-59
2022/12/24 08:33:49;;;;;;;19.70;10.00;;;6.70;99.90;;;;;;5046924;28;20185;-60
2022/12/24 08:36:14;;;;;;;15.37;8.97;;;6.70;99.90;;;;;;5039840;28;20168;-59
2022/12/24 08:38:40;;;;;;;20.53;9.33;;;6.80;99.90;;;;;;5044783;28;20210;-59
2022/12/24 08:41:06;;;;;;;19.73;9.57;;;6.80;99.90;;;;;;5054452;28;20385;-58
2022/12/24 08:43:31;;;;;;;14.73;7.00;;;6.80;99.90;;;;;;5036573;28;20205;-60
2022/12/24 08:46:04;;;;;;;13.03;6.07;;;6.90;99.90;;;;;;5033716;28;20436;-59
2022/12/24 08:48:31;;;;;;;11.47;6.10;;;6.90;99.90;;;;;;5040073;28;20262;-60
2022/12/24 08:50:57;;;;;;;13.03;4.97;;;6.90;99.90;;;;;;5040051;28;20555;-60
2022/12/24 08:53:22;;;;;;;14.63;4.70;;;6.90;99.90;;;;;;5037218;28;20982;-59
2022/12/24 08:55:48;;;;;;;11.63;4.90;;;7.00;99.90;;;;;;5046329;28;20261;-58
2022/12/24 08:58:14;;;;;;;16.20;5.73;;;7.00;99.90;;;;;;5046049;28;20669;-59
2022/12/24 09:00:39;;;;;;;13.97;5.90;;;7.00;99.90;;;;;;5054396;28;20228;-59
2022/12/24 09:03:05;;;;;;;11.27;5.27;;;7.00;99.90;;;;;;5039296;28;20232;-59
2022/12/24 09:05:30;;;;;;;20.67;5.73;;;7.10;99.90;;;;;;5035984;28;20332;-59
2022/12/24 09:07:56;;;;;;;15.50;7.23;;;7.10;99.90;;;;;;5046704;28;20665;-59
2022/12/24 09:10:22;;;;;;;12.03;6.43;;;7.10;99.90;;;;;;5045910;28;20210;-61
2022/12/24 09:12:48;;;;;;;14.83;6.23;;;7.20;99.90;;;;;;5042035;28;20443;-59
2022/12/24 09:15:14;;;;;;;7.87;5.13;;;7.20;99.90;;;;;;5035757;28;20228;-59
2022/12/24 09:17:39;;;;;;;9.90;5.63;;;7.20;99.90;;;;;;5035844;28;20258;-60
2022/12/24 09:20:06;;;;;;;9.10;6.27;;;7.30;99.90;;;;;;5037327;28;20219;-59
2022/12/24 09:22:36;;;;;;;13.63;6.70;;;7.30;99.90;;;;;;5039511;28;20252;-58
2022/12/24 09:25:03;;;;;;;13.83;5.13;;;7.30;99.90;;;;;;5044617;28;20544;-63
2022/12/24 09:27:30;;;;;;;8.80;5.50;;;7.20;99.90;;;;;;5045040;28;20826;-59
2022/12/24 09:29:56;;;;;;;9.93;5.50;;;7.20;99.90;;;;;;5039887;28;20898;-60
2022/12/24 09:32:21;;;;;;;16.57;6.50;;;7.10;99.90;;;;;;5041473;28;20532;-59
2022/12/24 09:34:47;;;;;;;13.20;7.00;;;7.10;99.90;;;;;;5053268;28;20716;-59
2022/12/24 09:37:13;;;;;;;15.17;6.60;;;7.10;99.90;;;;;;5044872;28;20183;-59
2022/12/24 09:39:38;;;;;;;10.73;6.53;;;7.10;99.90;;;;;;5039343;28;20757;-58
2022/12/24 09:42:37;;;;;;;19.47;9.70;;;7.10;99.90;;;;;;5053132;28;20206;-58
2022/12/24 09:45:15;;;;;;;21.77;12.13;;;7.20;99.90;;;;;;5041948;28;20539;-59
2022/12/24 09:47:54;;;;;;;31.20;14.67;;;7.20;99.90;;;;;;5045044;28;21256;-59
2022/12/24 09:50:24;;;;;;;27.50;15.13;;;7.30;99.90;;;;;;5040196;28;20469;-61
2022/12/24 09:52:51;;;;;;;25.93;9.70;;;7.30;99.90;;;;;;5047690;28;20459;-60
2022/12/24 09:55:33;;;;;;;19.17;9.83;;;7.40;99.90;;;;;;5046209;28;20507;-60
2022/12/24 09:58:01;;;;;;;15.80;5.57;;;7.40;99.90;;;;;;5038710;28;20449;-60
2022/12/24 10:00:32;;;;;;;17.90;5.43;;;7.50;99.90;;;;;;5044112;28;20806;-59
2022/12/24 10:02:57;;;;;;;11.83;5.20;;;7.50;99.90;;;;;;5034821;28;20433;-60
2022/12/24 10:05:50;;;;;;;20.60;7.37;;;7.60;99.90;;;;;;5041651;28;20458;-60
2022/12/24 10:08:18;;;;;;;12.70;6.03;;;7.60;99.90;;;;;;5033778;28;20827;-59
2022/12/24 10:11:02;;;;;;;10.13;5.40;;;7.70;99.90;;;;;;5041945;28;20464;-60
2022/12/24 10:13:30;;;;;;;18.97;6.07;;;7.70;99.90;;;;;;5037786;28;20937;-59
2022/12/24 10:16:12;;;;;;;20.77;5.40;;;7.70;99.90;;;;;;5031960;28;20517;-59
2022/12/24 10:19:02;;;;;;;12.67;4.83;;;7.80;99.90;;;;;;5029544;28;20792;-60
2022/12/24 10:21:46;;;;;;;9.23;4.57;;;7.90;99.90;;;;;;5034146;28;20441;-59
2022/12/24 10:24:28;;;;;;;7.20;3.50;;;7.90;99.90;;;;;;5035809;28;20467;-59
2022/12/24 10:27:14;;;;;;;15.57;6.33;;;8.00;99.90;;;;;;5041505;28;20504;-60
2022/12/24 10:29:51;;;;;;;11.17;4.70;;;8.00;99.90;;;;;;5048682;28;20558;-60
2022/12/24 10:32:30;;;;;;;11.43;3.97;;;8.10;99.90;;;;;;5050656;28;20525;-59
2022/12/24 10:35:07;;;;;;;12.30;4.20;;;8.20;99.90;;;;;;5043199;28;20428;-59
2022/12/24 10:37:32;;;;;;;5.40;3.70;;;8.30;99.90;;;;;;5045650;28;20425;-59
2022/12/24 10:39:59;;;;;;;7.00;3.40;;;8.30;99.90;;;;;;5043623;28;20857;-59
2022/12/24 10:42:41;;;;;;;16.53;7.13;;;8.40;99.90;;;;;;5031646;28;20200;-60
2022/12/24 10:45:12;;;;;;;11.03;4.80;;;8.40;99.90;;;;;;5041169;28;20817;-59
2022/12/24 10:47:39;;;;;;;9.33;4.03;;;8.50;99.90;;;;;;5044302;28;20824;-59
2022/12/24 10:50:19;;;;;;;10.47;4.80;;;8.60;99.90;;;;;;5041441;28;20462;-59
2022/12/24 10:52:46;;;;;;;13.80;4.63;;;8.60;99.90;;;;;;5046688;28;20461;-60
2022/12/24 10:55:18;;;;;;;13.77;4.33;;;8.70;99.90;;;;;;5042274;28;20485;-59
2022/12/24 10:57:59;;;;;;;9.13;4.93;;;8.70;99.90;;;;;;5039226;28;20524;-60
2022/12/24 11:00:25;;;;;;;13.43;5.77;;;8.70;99.90;;;;;;5041603;28;21021;-59
2022/12/24 11:03:11;;;;;;;10.30;4.30;;;8.70;99.90;;;;;;5050449;28;20488;-59
2022/12/24 11:05:37;;;;;;;7.80;3.67;;;8.70;99.90;;;;;;5049608;28;20239;-59
2022/12/24 11:08:05;;;;;;;11.27;3.30;;;8.80;99.90;;;;;;5047304;28;20418;-59
2022/12/24 11:10:35;;;;;;;7.03;3.77;;;8.80;99.90;;;;;;5050683;28;20450;-59
2022/12/24 11:13:01;;;;;;;12.80;3.50;;;8.90;99.90;;;;;;5040807;28;20422;-60
2022/12/24 11:15:35;;;;;;;11.47;3.50;;;9.00;99.90;;;;;;5041617;28;20812;-59
2022/12/24 11:18:05;;;;;;;7.37;3.60;;;9.00;99.90;;;;;;5053879;28;20433;-59
2022/12/24 11:20:33;;;;;;;8.00;3.90;;;9.10;99.90;;;;;;5040174;28;20487;-59
2022/12/24 11:23:00;;;;;;;6.83;3.37;;;9.20;99.90;;;;;;5035180;28;20452;-60
2022/12/24 11:25:30;;;;;;;7.80;3.50;;;9.20;99.90;;;;;;5037914;28;20421;-60
2022/12/24 11:28:09;;;;;;;8.83;3.13;;;9.20;99.90;;;;;;5027561;28;20448;-61
2022/12/24 11:30:35;;;;;;;7.73;3.70;;;9.20;99.90;;;;;;5033070;28;20984;-60
2022/12/24 11:33:01;;;;;;;7.80;3.43;;;9.20;99.90;;;;;;5044007;28;20448;-55
2022/12/24 11:35:28;;;;;;;8.83;2.90;;;9.20;99.90;;;;;;5038027;28;20432;-60
2022/12/24 11:38:00;;;;;;;8.23;3.00;;;9.20;99.90;;;;;;5044263;28;20826;-59
2022/12/24 11:40:33;;;;;;;17.70;4.10;;;9.20;99.90;;;;;;5033512;28;20477;-59
2022/12/24 11:42:59;;;;;;;11.00;4.77;;;9.20;99.90;;;;;;5035231;28;20434;-57
2022/12/24 11:45:28;;;;;;;8.03;4.80;;;9.20;99.90;;;;;;5033930;28;20483;-55
2022/12/24 11:47:55;;;;;;;9.50;3.40;;;9.30;99.90;;;;;;5032474;28;21077;-60
2022/12/24 11:50:30;;;;;;;13.67;4.70;;;9.30;99.90;;;;;;5032713;28;20466;-60
2022/12/24 11:52:59;;;;;;;8.50;4.40;;;9.30;99.90;;;;;;5035680;28;20436;-53
2022/12/24 11:55:34;;;;;;;10.60;3.30;;;9.30;99.90;;;;;;5029425;28;20524;-60
2022/12/24 11:58:42;;;;;;;8.70;3.47;;;9.30;99.90;;;;;;5032312;28;20437;-60
2022/12/24 12:01:33;;;;;;;5.40;2.97;;;9.20;99.90;;;;;;4999632;28;20545;-60
2022/12/24 12:04:11;;;;;;;15.97;3.73;;;9.20;99.90;;;;;;5032435;28;21225;-60
2022/12/24 12:06:51;;;;;;;7.20;3.77;;;9.20;99.90;;;;;;5025270;28;20426;-61
2022/12/24 12:09:23;;;;;;;5.57;3.27;;;9.10;99.90;;;;;;5030256;28;21059;-60
2022/12/24 12:11:55;;;;;;;7.43;3.53;;;9.10;99.90;;;;;;5025821;28;20476;-60
2022/12/24 12:14:28;;;;;;;11.27;3.60;;;9.00;99.90;;;;;;5035061;28;20425;-60
2022/12/24 12:17:13;;;;;;;7.27;3.53;;;9.00;99.90;;;;;;5036292;28;20437;-60
2022/12/24 12:19:54;;;;;;;6.00;3.80;;;9.00;99.90;;;;;;5034777;28;20964;-63
2022/12/24 12:22:20;;;;;;;10.87;4.20;;;9.00;99.90;;;;;;5034476;28;20453;-59
2022/12/24 12:24:51;;;;;;;8.03;4.00;;;9.00;99.90;;;;;;5035729;28;20972;-59
2022/12/24 12:27:51;;;;;;;8.90;5.00;;;9.10;99.90;;;;;;5034599;28;20295;-59
2022/12/24 12:30:20;;;;;;;10.53;6.17;;;9.10;99.90;;;;;;5015977;28;20473;-59
2022/12/24 12:33:01;;;;;;;12.37;7.30;;;9.10;99.90;;;;;;5037396;28;20989;-60
2022/12/24 12:35:36;;;;;;;8.10;4.70;;;9.10;99.90;;;;;;5031863;28;20944;-59
2022/12/24 12:38:09;;;;;;;5.00;4.37;;;9.10;99.90;;;;;;5035656;28;20432;-61
2022/12/24 12:41:00;;;;;;;8.30;4.40;;;9.00;99.90;;;;;;5038267;28;20526;-60
2022/12/24 12:43:57;;;;;;;3.47;2.90;;;9.00;99.90;;;;;;5033012;28;20469;-60
2022/12/24 12:46:41;;;;;;;12.90;4.53;;;9.00;99.90;;;;;;5037904;28;20441;-53
2022/12/24 12:49:25;;;;;;;11.10;3.40;;;9.00;99.90;;;;;;5040637;28;20468;-59
2022/12/24 12:52:10;;;;;;;3.60;2.97;;;8.90;99.90;;;;;;5041885;28;20453;-60
2022/12/24 12:55:03;;;;;;;6.20;3.03;;;8.90;99.90;;;;;;5039044;28;20442;-60
2022/12/24 12:57:34;;;;;;;6.33;3.07;;;8.90;99.90;;;;;;5045521;28;20965;-60
2022/12/24 13:00:12;;;;;;;7.67;2.87;;;8.90;99.90;;;;;;5037035;28;20442;-59
2022/12/24 13:03:14;;;;;;;5.17;2.97;;;9.00;99.90;;;;;;5043388;28;21558;-60
2022/12/24 13:06:06;;;;;;;3.47;2.90;;;9.10;99.90;;;;;;5043816;28;20826;-62
2022/12/24 13:08:42;;;;;;;8.27;3.93;;;9.10;99.90;;;;;;5046597;28;20441;-61
2022/12/24 13:11:23;;;;;;;5.40;2.87;;;9.20;99.90;;;;;;5035324;28;20445;-61
2022/12/24 13:13:55;;;;;;;7.00;3.70;;;9.20;99.90;;;;;;5037973;28;21159;-60